Time;durP1;ratioP1;P1;durP2;ratioP2;P2;SDS_P1;SDS_P2;PMS_P1;PMS_P2;Temp;Humidity;BMP_temperature;BMP_pressure;BME280_temperature;BME280_humidity;BME280_pressure;Samples;Min_cycle;Max_cycle;Signal;HPM_P1;HPM_P2
2024/01/15 00:01:44;;;;;;;42.43;12.87;;;-1.60;99.90;;;;;;5120154;28;20098;-74
2024/01/15 00:04:09;;;;;;;46.47;12.70;;;-1.60;99.90;;;;;;5101171;28;20448;-74
2024/01/15 00:06:35;;;;;;;47.77;14.80;;;-1.60;99.90;;;;;;5119891;28;20031;-73
2024/01/15 00:09:01;;;;;;;39.43;12.73;;;-1.60;99.90;;;;;;5101383;28;20016;-73
2024/01/15 00:11:26;;;;;;;41.70;12.03;;;-1.60;99.90;;;;;;5100910;28;20102;-74
2024/01/15 00:13:52;;;;;;;45.83;13.17;;;-1.60;99.90;;;;;;5101800;28;20061;-74
2024/01/15 00:16:18;;;;;;;44.23;12.07;;;-1.50;99.90;;;;;;5101119;28;20019;-74
2024/01/15 00:18:43;;;;;;;35.20;11.47;;;-1.50;99.90;;;;;;5119851;28;20024;-74
2024/01/15 00:21:09;;;;;;;43.57;11.67;;;-1.50;99.90;;;;;;5100911;28;20051;-74
2024/01/15 00:23:35;;;;;;;37.80;11.13;;;-1.50;99.90;;;;;;5101027;28;20024;-74
2024/01/15 00:26:00;;;;;;;38.50;13.80;;;-1.50;99.90;;;;;;5101340;28;20016;-73
2024/01/15 00:28:26;;;;;;;36.57;12.07;;;-1.50;99.90;;;;;;5100857;28;20027;-74
2024/01/15 00:30:51;;;;;;;45.20;12.77;;;-1.50;99.90;;;;;;5101420;28;20020;-73
2024/01/15 00:33:17;;;;;;;39.67;13.07;;;-1.50;99.90;;;;;;5100918;28;20440;-73
2024/01/15 00:35:43;;;;;;;40.97;11.97;;;-1.50;99.90;;;;;;5101389;28;20023;-73
2024/01/15 00:38:08;;;;;;;39.17;12.10;;;-1.40;99.90;;;;;;5101166;28;20049;-83
2024/01/15 00:40:34;;;;;;;38.10;11.63;;;-1.50;99.90;;;;;;5119221;28;20127;-74
2024/01/15 00:42:59;;;;;;;37.60;11.83;;;-1.50;99.90;;;;;;5101321;28;20115;-74
2024/01/15 00:45:25;;;;;;;38.20;12.07;;;-1.50;99.90;;;;;;5100835;28;20030;-74
2024/01/15 00:47:51;;;;;;;40.13;12.63;;;-1.50;99.90;;;;;;5101153;28;20440;-73
2024/01/15 00:50:17;;;;;;;36.80;11.67;;;-1.50;99.90;;;;;;5100723;28;20020;-74
2024/01/15 00:52:42;;;;;;;40.90;12.73;;;-1.50;99.90;;;;;;5101463;28;20110;-73
2024/01/15 00:55:08;;;;;;;37.43;11.83;;;-1.50;99.90;;;;;;5101203;28;20102;-74
2024/01/15 00:57:34;;;;;;;44.37;12.93;;;-1.50;99.90;;;;;;5100689;28;20031;-73
2024/01/15 00:59:59;;;;;;;41.17;12.90;;;-1.50;99.90;;;;;;5099423;28;20448;-73
2024/01/15 01:02:26;;;;;;;47.03;12.47;;;-1.60;99.90;;;;;;5115762;28;20026;-74
2024/01/15 01:04:51;;;;;;;41.30;12.03;;;-1.60;99.90;;;;;;5097868;28;20012;-74
2024/01/15 01:07:17;;;;;;;41.70;13.60;;;-1.50;99.90;;;;;;5097422;28;20418;-74
2024/01/15 01:09:43;;;;;;;48.73;12.80;;;-1.50;99.90;;;;;;5097597;28;20449;-74
2024/01/15 01:12:09;;;;;;;43.30;12.60;;;-1.60;99.90;;;;;;5097790;28;20023;-74
2024/01/15 01:14:35;;;;;;;41.90;13.27;;;-1.60;99.90;;;;;;5097327;28;20072;-73
2024/01/15 01:17:00;;;;;;;43.10;13.37;;;-1.60;99.90;;;;;;5097597;28;20027;-74
2024/01/15 01:19:26;;;;;;;46.50;13.80;;;-1.60;99.90;;;;;;5115587;28;20020;-74
2024/01/15 01:21:52;;;;;;;38.90;12.30;;;-1.60;99.90;;;;;;5115929;28;20503;-74
2024/01/15 01:24:17;;;;;;;43.77;13.10;;;-1.60;99.90;;;;;;5115427;28;20505;-74
2024/01/15 01:26:43;;;;;;;34.90;11.20;;;-1.60;99.90;;;;;;5097611;28;20035;-74
2024/01/15 01:29:08;;;;;;;41.13;12.07;;;-1.60;99.90;;;;;;5097537;28;20015;-73
2024/01/15 01:31:34;;;;;;;37.77;11.60;;;-1.60;99.90;;;;;;5096677;28;20111;-73
2024/01/15 01:33:59;;;;;;;40.10;12.73;;;-1.60;99.90;;;;;;5097199;28;20068;-73
2024/01/15 01:36:25;;;;;;;33.07;10.83;;;-1.70;99.90;;;;;;5096938;28;20033;-74
2024/01/15 01:38:51;;;;;;;40.50;13.03;;;-1.60;99.90;;;;;;5115608;28;20030;-73
2024/01/15 01:41:16;;;;;;;34.93;11.00;;;-1.60;99.90;;;;;;5093083;28;20040;-74
2024/01/15 01:43:43;;;;;;;45.73;12.17;;;-1.70;99.90;;;;;;5093777;28;20111;-74
2024/01/15 01:46:09;;;;;;;36.63;10.33;;;-1.70;99.90;;;;;;5093778;28;20024;-73
2024/01/15 01:48:35;;;;;;;39.27;11.93;;;-1.70;99.90;;;;;;5093258;28;20021;-73
2024/01/15 01:51:04;;;;;;;36.67;11.27;;;-1.70;99.90;;;;;;5094918;28;20020;-74
2024/01/15 01:53:31;;;;;;;32.47;10.57;;;-1.70;99.90;;;;;;5092782;28;20047;-74
2024/01/15 01:55:58;;;;;;;39.30;11.00;;;-1.70;99.90;;;;;;5093667;28;20020;-73
2024/01/15 01:58:25;;;;;;;34.27;10.27;;;-1.70;99.90;;;;;;5093143;28;20069;-74
2024/01/15 02:00:51;;;;;;;39.83;11.27;;;-1.70;99.90;;;;;;5094603;28;20031;-73
2024/01/15 02:03:16;;;;;;;37.87;11.93;;;-1.70;99.90;;;;;;5094017;28;20016;-74
2024/01/15 02:05:44;;;;;;;38.90;10.90;;;-1.70;99.90;;;;;;5093669;28;20388;-73
2024/01/15 02:08:10;;;;;;;33.17;10.63;;;-1.70;99.90;;;;;;5093301;28;20035;-73
2024/01/15 02:10:36;;;;;;;39.57;11.30;;;-1.70;99.90;;;;;;5092781;28;20024;-73
2024/01/15 02:13:02;;;;;;;34.60;10.33;;;-1.70;99.90;;;;;;5093442;28;20027;-73
2024/01/15 02:15:28;;;;;;;34.43;11.37;;;-1.60;99.90;;;;;;5092790;28;20024;-73
2024/01/15 02:18:11;;;;;;;31.30;11.17;;;-1.70;99.90;;;;;;5094400;28;20082;-74
2024/01/15 02:20:37;;;;;;;33.47;11.27;;;-1.60;99.90;;;;;;5092632;28;20020;-74
2024/01/15 02:23:12;;;;;;;34.20;10.80;;;-1.60;99.90;;;;;;5094279;28;20020;-73
2024/01/15 02:25:45;;;;;;;35.07;11.07;;;-1.70;99.90;;;;;;5093845;28;20027;-74
2024/01/15 02:28:13;;;;;;;36.53;11.73;;;-1.70;99.90;;;;;;5093860;28;20432;-73
2024/01/15 02:30:40;;;;;;;36.70;10.40;;;-1.60;99.90;;;;;;5092261;28;20031;-74
2024/01/15 02:33:07;;;;;;;33.77;9.63;;;-1.70;99.90;;;;;;5092684;28;20031;-73
2024/01/15 02:35:33;;;;;;;33.67;10.03;;;-1.60;99.90;;;;;;5092031;28;20016;-74
2024/01/15 02:37:59;;;;;;;38.20;10.80;;;-1.60;99.90;;;;;;5092794;28;20027;-74
2024/01/15 02:40:25;;;;;;;33.77;10.13;;;-1.60;99.90;;;;;;5092166;28;20058;-74
2024/01/15 02:42:50;;;;;;;35.97;10.00;;;-1.60;99.90;;;;;;5095999;28;20395;-73
2024/01/15 02:45:17;;;;;;;29.37;10.43;;;-1.60;99.90;;;;;;5114014;28;20120;-84
2024/01/15 02:47:42;;;;;;;33.87;10.63;;;-1.60;99.90;;;;;;5113988;28;20024;-74
2024/01/15 02:50:08;;;;;;;30.33;9.93;;;-1.50;99.90;;;;;;5114216;28;20088;-74
2024/01/15 02:52:34;;;;;;;34.27;10.17;;;-1.50;99.90;;;;;;5095351;28;20026;-74
2024/01/15 02:54:59;;;;;;;29.43;9.60;;;-1.50;99.90;;;;;;5095831;28;20479;-73
2024/01/15 02:57:25;;;;;;;28.33;9.00;;;-1.50;99.90;;;;;;5095590;28;20023;-74
2024/01/15 02:59:50;;;;;;;29.07;9.30;;;-1.50;99.90;;;;;;5113820;28;20441;-73
2024/01/15 03:02:16;;;;;;;35.27;9.40;;;-1.50;99.90;;;;;;5095600;28;20038;-73
2024/01/15 03:04:45;;;;;;;31.50;10.10;;;-1.50;99.90;;;;;;5113590;28;20019;-74
2024/01/15 03:07:10;;;;;;;27.40;9.33;;;-1.50;99.90;;;;;;5095414;28;20024;-73
2024/01/15 03:09:36;;;;;;;30.60;9.20;;;-1.50;99.90;;;;;;5095049;28;20475;-73
2024/01/15 03:12:02;;;;;;;33.80;9.97;;;-1.40;99.90;;;;;;5095431;28;20019;-73
2024/01/15 03:14:27;;;;;;;28.87;9.07;;;-1.40;99.90;;;;;;5095070;28;20026;-74
2024/01/15 03:16:53;;;;;;;32.33;9.00;;;-1.40;99.90;;;;;;5095559;28;20032;-74
2024/01/15 03:19:19;;;;;;;29.90;9.23;;;-1.50;99.90;;;;;;5113194;28;20024;-76
2024/01/15 03:21:44;;;;;;;23.10;8.27;;;-1.40;99.90;;;;;;5113446;28;20071;-74
2024/01/15 03:24:10;;;;;;;28.07;8.83;;;-1.40;99.90;;;;;;5094946;28;20020;-74
2024/01/15 03:26:36;;;;;;;27.53;8.77;;;-1.40;99.90;;;;;;5112904;28;20054;-74
2024/01/15 03:29:01;;;;;;;27.50;9.10;;;-1.40;99.90;;;;;;5113401;28;20023;-76
2024/01/15 03:31:27;;;;;;;24.13;8.60;;;-1.40;99.90;;;;;;5112977;28;20051;-74
2024/01/15 03:33:52;;;;;;;29.47;9.13;;;-1.40;99.90;;;;;;5094976;28;20016;-73
2024/01/15 03:36:18;;;;;;;34.27;9.47;;;-1.40;99.90;;;;;;5095259;28;20034;-74
2024/01/15 03:38:44;;;;;;;29.23;9.47;;;-1.30;99.90;;;;;;5094914;28;20363;-74
2024/01/15 03:41:10;;;;;;;31.27;9.33;;;-1.30;99.90;;;;;;5113278;28;20122;-74
2024/01/15 03:43:35;;;;;;;31.47;10.13;;;-1.40;99.90;;;;;;5094596;28;20032;-74
2024/01/15 03:46:02;;;;;;;25.53;8.27;;;-1.30;99.90;;;;;;5113304;28;20020;-74
2024/01/15 03:48:27;;;;;;;29.13;8.60;;;-1.30;99.90;;;;;;5112817;28;20015;-74
2024/01/15 03:50:53;;;;;;;25.60;8.60;;;-1.30;99.90;;;;;;5094949;28;20403;-74
2024/01/15 03:53:19;;;;;;;29.37;8.63;;;-1.30;99.90;;;;;;5112940;28;20094;-74
2024/01/15 03:55:44;;;;;;;23.20;8.00;;;-1.30;99.90;;;;;;5112844;28;20044;-74
2024/01/15 03:58:10;;;;;;;29.20;8.97;;;-1.30;99.90;;;;;;5094886;28;20109;-74
2024/01/15 04:00:35;;;;;;;30.20;9.90;;;-1.30;99.90;;;;;;5094188;28;20119;-74
2024/01/15 04:03:01;;;;;;;27.23;9.20;;;-1.30;99.90;;;;;;5113261;28;20098;-74
2024/01/15 04:05:27;;;;;;;28.97;9.00;;;-1.30;99.90;;;;;;5112488;28;20020;-74
2024/01/15 04:07:52;;;;;;;31.60;9.73;;;-1.30;99.90;;;;;;5095010;28;20418;-74
2024/01/15 04:10:18;;;;;;;28.60;8.90;;;-1.30;99.90;;;;;;5094805;28;20020;-74
2024/01/15 04:12:46;;;;;;;27.53;8.63;;;-1.20;99.90;;;;;;5094216;28;20115;-74
2024/01/15 04:15:12;;;;;;;30.23;9.63;;;-1.20;99.90;;;;;;5113049;28;20015;-74
2024/01/15 04:17:37;;;;;;;26.87;8.77;;;-1.20;99.90;;;;;;5094327;28;20023;-74
2024/01/15 04:20:03;;;;;;;27.90;9.40;;;-1.20;99.90;;;;;;5094496;28;20338;-74
2024/01/15 04:22:29;;;;;;;24.67;8.03;;;-1.20;99.90;;;;;;5094246;28;20070;-74
2024/01/15 04:24:55;;;;;;;35.27;9.47;;;-1.20;99.90;;;;;;5094844;28;20449;-74
2024/01/15 04:27:20;;;;;;;24.67;8.90;;;-1.20;99.90;;;;;;5112910;28;20028;-74
2024/01/15 04:29:46;;;;;;;26.87;8.10;;;-1.20;99.90;;;;;;5112353;28;20031;-74
2024/01/15 04:32:12;;;;;;;28.77;9.60;;;-1.20;99.90;;;;;;5112922;28;20051;-74
2024/01/15 04:34:37;;;;;;;22.57;8.50;;;-1.20;99.90;;;;;;5112444;28;20020;-74
2024/01/15 04:37:03;;;;;;;27.80;8.57;;;-1.20;99.90;;;;;;5098131;28;20028;-74
2024/01/15 04:39:29;;;;;;;24.53;8.57;;;-1.20;99.90;;;;;;5097703;28;20020;-74
2024/01/15 04:41:55;;;;;;;24.67;8.20;;;-1.20;99.90;;;;;;5094523;28;20040;-74
2024/01/15 04:44:20;;;;;;;25.77;9.00;;;-1.20;99.90;;;;;;5096161;28;20055;-74
2024/01/15 04:46:46;;;;;;;22.53;7.37;;;-1.20;99.90;;;;;;5095596;28;20039;-73
2024/01/15 04:49:11;;;;;;;26.43;8.47;;;-1.20;99.90;;;;;;5094890;28;20016;-74
2024/01/15 04:51:37;;;;;;;26.67;8.90;;;-1.20;99.90;;;;;;5094390;28;20106;-74
2024/01/15 04:54:03;;;;;;;25.00;8.87;;;-1.20;99.90;;;;;;5095954;28;20016;-74
2024/01/15 04:56:29;;;;;;;27.87;9.10;;;-1.20;99.90;;;;;;5095611;28;20095;-74
2024/01/15 04:58:54;;;;;;;28.50;9.80;;;-1.20;99.90;;;;;;5096296;28;20052;-74
2024/01/15 05:01:20;;;;;;;28.03;8.77;;;-1.20;99.90;;;;;;5095631;28;20476;-74
2024/01/15 05:03:45;;;;;;;26.70;8.93;;;-1.20;99.90;;;;;;5093721;28;20032;-74
2024/01/15 05:06:11;;;;;;;30.77;10.13;;;-1.20;99.90;;;;;;5094421;28;20024;-74
2024/01/15 05:08:37;;;;;;;27.90;9.60;;;-1.20;99.90;;;;;;5095215;28;20031;-74
2024/01/15 05:11:02;;;;;;;26.70;9.33;;;-1.20;99.90;;;;;;5095411;28;20028;-74
2024/01/15 05:13:28;;;;;;;30.67;10.10;;;-1.10;99.90;;;;;;5093928;28;20028;-74
2024/01/15 05:15:53;;;;;;;27.63;9.30;;;-1.10;99.90;;;;;;5094358;28;20024;-75
2024/01/15 05:18:19;;;;;;;29.20;8.77;;;-1.10;99.90;;;;;;5095430;28;20020;-75
2024/01/15 05:20:45;;;;;;;27.77;9.00;;;-1.10;99.90;;;;;;5095164;28;20024;-74
2024/01/15 05:23:10;;;;;;;30.73;9.67;;;-1.10;99.90;;;;;;5094245;28;20020;-74
2024/01/15 05:25:36;;;;;;;27.73;9.40;;;-1.10;99.90;;;;;;5095191;28;20047;-74
2024/01/15 05:28:02;;;;;;;31.97;9.67;;;-1.10;99.90;;;;;;5094043;28;20024;-74
2024/01/15 05:30:28;;;;;;;30.40;9.37;;;-1.10;99.90;;;;;;5093629;28;20020;-75
2024/01/15 05:32:54;;;;;;;28.23;8.83;;;-1.10;99.90;;;;;;5095384;28;20013;-74
2024/01/15 05:35:19;;;;;;;23.97;8.50;;;-1.10;99.90;;;;;;5095240;28;20016;-74
2024/01/15 05:37:45;;;;;;;30.23;9.63;;;-1.10;99.90;;;;;;5094664;28;20031;-74
2024/01/15 05:40:12;;;;;;;30.33;9.90;;;-1.10;99.90;;;;;;5093582;28;20119;-74
2024/01/15 05:42:39;;;;;;;25.47;9.03;;;-1.10;99.90;;;;;;5093185;28;20048;-74
2024/01/15 05:45:05;;;;;;;29.57;10.07;;;-1.10;99.90;;;;;;5095061;28;20024;-74
2024/01/15 05:47:30;;;;;;;30.73;10.00;;;-1.10;99.90;;;;;;5093025;28;20110;-74
2024/01/15 05:49:57;;;;;;;32.97;9.77;;;-1.10;99.90;;;;;;5094963;28;20052;-74
2024/01/15 05:52:22;;;;;;;24.50;8.47;;;-1.10;99.90;;;;;;5093655;28;20023;-74
2024/01/15 05:54:49;;;;;;;26.70;9.70;;;-1.10;99.90;;;;;;5093047;28;20024;-74
2024/01/15 05:57:14;;;;;;;27.20;8.97;;;-1.00;99.90;;;;;;5094930;28;20028;-74
2024/01/15 05:59:40;;;;;;;31.27;9.47;;;-1.00;99.90;;;;;;5094325;28;20078;-74
2024/01/15 06:02:06;;;;;;;28.33;9.50;;;-1.00;99.90;;;;;;5093434;28;20073;-74
2024/01/15 06:04:31;;;;;;;30.47;10.20;;;-1.00;99.90;;;;;;5092904;28;20107;-75
2024/01/15 06:06:57;;;;;;;27.77;9.33;;;-1.00;99.90;;;;;;5093176;28;20457;-74
2024/01/15 06:09:23;;;;;;;28.53;9.50;;;-0.90;99.90;;;;;;5094806;28;20024;-74
2024/01/15 06:11:48;;;;;;;30.73;9.80;;;-0.90;99.90;;;;;;5094208;28;20354;-74
2024/01/15 06:14:14;;;;;;;31.43;10.63;;;-0.90;99.90;;;;;;5094498;28;20528;-74
2024/01/15 06:16:39;;;;;;;28.57;10.10;;;-0.90;99.90;;;;;;5092344;28;20027;-75
2024/01/15 06:19:05;;;;;;;32.90;9.90;;;-0.80;99.90;;;;;;5092620;28;20132;-76
2024/01/15 06:21:31;;;;;;;29.23;9.67;;;-0.80;99.90;;;;;;5092301;28;20062;-81
2024/01/15 06:23:56;;;;;;;30.53;9.73;;;-0.90;99.90;;;;;;5092635;28;20406;-74
2024/01/15 06:26:22;;;;;;;32.97;10.53;;;-0.80;99.90;;;;;;5092743;28;20027;-74
2024/01/15 06:28:48;;;;;;;29.27;9.33;;;-0.80;99.90;;;;;;5093439;28;20027;-76
2024/01/15 06:31:23;;;;;;;27.60;10.23;;;-0.80;99.90;;;;;;5093693;28;20024;-74
2024/01/15 06:33:49;;;;;;;32.37;10.53;;;-0.80;99.90;;;;;;5092449;28;20323;-74
2024/01/15 06:36:16;;;;;;;23.37;8.80;;;-0.80;99.90;;;;;;5092267;28;20520;-74
2024/01/15 06:38:44;;;;;;;25.20;8.27;;;-0.80;99.90;;;;;;5092354;28;20020;-75
2024/01/15 06:41:09;;;;;;;25.73;9.40;;;-0.70;99.90;;;;;;5092255;28;20552;-74
2024/01/15 06:43:35;;;;;;;28.57;9.70;;;-0.70;99.90;;;;;;5092268;28;20059;-75
2024/01/15 06:46:01;;;;;;;26.37;9.10;;;-0.70;99.90;;;;;;5092584;28;20024;-74
2024/01/15 06:48:26;;;;;;;26.73;8.97;;;-0.70;99.90;;;;;;5092601;28;20032;-75
2024/01/15 06:50:52;;;;;;;28.63;8.63;;;-0.70;99.90;;;;;;5092091;28;20019;-74
2024/01/15 06:53:17;;;;;;;27.43;8.80;;;-0.70;99.90;;;;;;5093796;28;20027;-74
2024/01/15 06:55:43;;;;;;;24.10;8.80;;;-0.70;99.90;;;;;;5092082;28;20073;-75
2024/01/15 06:58:09;;;;;;;28.53;9.53;;;-0.70;99.90;;;;;;5091844;28;20024;-74
2024/01/15 07:00:34;;;;;;;25.20;8.27;;;-0.70;99.90;;;;;;5093206;28;20342;-75
2024/01/15 07:03:00;;;;;;;23.80;8.10;;;-0.70;99.90;;;;;;5092048;28;20016;-74
2024/01/15 07:05:26;;;;;;;26.40;8.80;;;-0.70;99.90;;;;;;5092290;28;20398;-74
2024/01/15 07:07:51;;;;;;;25.10;9.50;;;-0.60;99.90;;;;;;5092990;28;20160;-74
2024/01/15 07:10:17;;;;;;;25.73;8.73;;;-0.60;99.90;;;;;;5093330;28;20020;-74
2024/01/15 07:12:43;;;;;;;21.63;7.37;;;-0.60;99.90;;;;;;5092942;28;20032;-74
2024/01/15 07:15:09;;;;;;;23.70;7.87;;;-0.60;99.90;;;;;;5093406;28;20475;-74
2024/01/15 07:17:35;;;;;;;26.97;8.63;;;-0.60;99.90;;;;;;5091576;28;20020;-75
2024/01/15 07:20:01;;;;;;;25.27;8.73;;;-0.60;99.90;;;;;;5093299;28;20016;-74
2024/01/15 07:22:27;;;;;;;28.57;8.97;;;-0.60;99.90;;;;;;5093313;28;20031;-74
2024/01/15 07:24:53;;;;;;;22.47;8.03;;;-0.60;99.90;;;;;;5091635;28;20103;-74
2024/01/15 07:27:19;;;;;;;28.53;9.00;;;-0.60;99.90;;;;;;5091982;28;20035;-74
2024/01/15 07:29:45;;;;;;;24.93;8.97;;;-0.60;99.90;;;;;;5091479;28;20042;-74
2024/01/15 07:32:11;;;;;;;28.00;8.90;;;-0.60;99.90;;;;;;5091848;28;20453;-75
2024/01/15 07:34:37;;;;;;;25.80;8.17;;;-0.50;99.90;;;;;;5091358;28;20023;-74
2024/01/15 07:37:02;;;;;;;26.20;8.17;;;-0.50;99.90;;;;;;5091915;28;20042;-74
2024/01/15 07:39:28;;;;;;;27.13;8.10;;;-0.50;99.90;;;;;;5091895;28;20342;-74
2024/01/15 07:41:54;;;;;;;22.33;7.80;;;-0.50;99.90;;;;;;5105219;28;20048;-74
2024/01/15 07:44:20;;;;;;;21.03;7.27;;;-0.50;99.90;;;;;;5113259;28;20030;-74
2024/01/15 07:46:49;;;;;;;20.97;7.50;;;-0.40;99.90;;;;;;5094312;28;20460;-74
2024/01/15 07:49:14;;;;;;;23.30;8.27;;;-0.40;99.90;;;;;;5113309;28;20020;-74
2024/01/15 07:51:40;;;;;;;24.10;8.13;;;-0.40;99.90;;;;;;5094550;28;20027;-74
2024/01/15 07:54:07;;;;;;;22.63;7.60;;;-0.40;99.90;;;;;;5095118;28;20464;-75
2024/01/15 07:56:33;;;;;;;20.67;7.67;;;-0.40;99.90;;;;;;5095045;28;20024;-74
2024/01/15 07:58:58;;;;;;;20.13;7.70;;;-0.40;99.90;;;;;;5094501;28;20023;-75
2024/01/15 08:01:24;;;;;;;24.13;7.60;;;-0.40;99.90;;;;;;5095058;28;20030;-74
2024/01/15 08:03:49;;;;;;;24.27;7.83;;;-0.40;99.90;;;;;;5112698;28;20403;-74
2024/01/15 08:06:15;;;;;;;24.70;7.57;;;-0.30;99.90;;;;;;5094931;28;20209;-74
2024/01/15 08:08:41;;;;;;;26.13;7.07;;;-0.30;99.90;;;;;;5112500;28;20452;-74
2024/01/15 08:11:07;;;;;;;23.57;7.27;;;-0.30;99.90;;;;;;5117024;28;20023;-74
2024/01/15 08:13:32;;;;;;;24.93;7.87;;;-0.30;99.90;;;;;;5098980;28;20449;-75
2024/01/15 08:15:58;;;;;;;25.90;7.83;;;-0.30;99.90;;;;;;5098576;28;20028;-74
2024/01/15 08:18:23;;;;;;;24.13;9.03;;;-0.30;99.90;;;;;;5117193;28;20027;-74
2024/01/15 08:20:51;;;;;;;23.50;9.03;;;-0.30;99.90;;;;;;5116617;28;20404;-74
2024/01/15 08:23:17;;;;;;;25.50;8.13;;;-0.30;99.90;;;;;;5098730;28;20475;-74
2024/01/15 08:25:42;;;;;;;26.20;7.97;;;-0.30;99.90;;;;;;5098282;28;20019;-74
2024/01/15 08:28:08;;;;;;;23.17;8.23;;;-0.30;99.90;;;;;;5098346;28;20122;-74
2024/01/15 08:30:34;;;;;;;22.17;8.87;;;-0.20;99.90;;;;;;5116928;28;20016;-74
2024/01/15 08:33:00;;;;;;;28.47;9.17;;;-0.30;99.90;;;;;;5098051;28;20376;-74
2024/01/15 08:35:25;;;;;;;30.33;9.30;;;-0.30;99.90;;;;;;5116748;28;20092;-74
2024/01/15 08:37:52;;;;;;;24.60;8.93;;;-0.20;99.90;;;;;;5098030;28;20391;-75
2024/01/15 08:40:18;;;;;;;26.07;9.33;;;-0.20;99.90;;;;;;5098459;28;20019;-75
2024/01/15 08:42:45;;;;;;;23.80;8.90;;;-0.20;99.90;;;;;;5097428;28;20039;-75
2024/01/15 08:45:11;;;;;;;23.20;8.30;;;-0.20;99.90;;;;;;5098307;28;20027;-74
2024/01/15 08:47:37;;;;;;;23.53;8.37;;;-0.20;99.90;;;;;;5116476;28;20031;-74
2024/01/15 08:50:04;;;;;;;26.57;9.27;;;-0.20;99.90;;;;;;5116609;28;20088;-74
2024/01/15 08:52:29;;;;;;;26.30;9.17;;;-0.20;99.90;;;;;;5098321;28;20452;-74
2024/01/15 08:54:58;;;;;;;22.20;8.93;;;-0.20;99.90;;;;;;5116064;28;20080;-75
2024/01/15 08:57:24;;;;;;;30.90;9.50;;;-0.10;99.90;;;;;;5116302;28;20457;-74
2024/01/15 08:59:49;;;;;;;26.97;9.33;;;-0.10;99.90;;;;;;5115640;28;20051;-74
2024/01/15 09:02:15;;;;;;;28.73;9.37;;;-0.10;99.90;;;;;;5116371;28;20026;-74
2024/01/15 09:04:41;;;;;;;28.67;10.47;;;-0.10;99.90;;;;;;5116093;28;20023;-74
2024/01/15 09:07:07;;;;;;;29.23;9.57;;;0.00;99.90;;;;;;5097916;28;20494;-74
2024/01/15 09:09:34;;;;;;;25.83;9.57;;;-0.10;99.90;;;;;;5097899;28;20043;-74
2024/01/15 09:12:00;;;;;;;28.83;8.90;;;0.00;99.90;;;;;;5097182;28;20491;-74
2024/01/15 09:14:26;;;;;;;24.53;9.10;;;0.00;99.90;;;;;;5116155;28;20027;-74
2024/01/15 09:16:52;;;;;;;25.50;9.63;;;0.00;99.90;;;;;;5097208;28;20031;-75
2024/01/15 09:19:18;;;;;;;25.83;9.70;;;0.00;99.90;;;;;;5097687;28;20019;-74
2024/01/15 09:21:44;;;;;;;26.60;10.07;;;0.00;99.90;;;;;;5114751;28;20164;-74
2024/01/15 09:24:09;;;;;;;25.63;9.63;;;0.00;99.90;;;;;;5116128;28;20449;-74
2024/01/15 09:26:35;;;;;;;29.50;10.43;;;0.10;99.90;;;;;;5097184;28;20031;-74
2024/01/15 09:29:00;;;;;;;29.50;10.03;;;0.10;99.90;;;;;;5097125;28;20032;-74
2024/01/15 09:31:26;;;;;;;28.33;10.53;;;0.10;99.90;;;;;;5097443;28;20027;-74
2024/01/15 09:33:55;;;;;;;26.00;9.83;;;0.20;99.90;;;;;;5097089;28;20045;-74
2024/01/15 09:36:22;;;;;;;26.93;10.23;;;0.20;99.90;;;;;;5097337;28;20475;-74
2024/01/15 09:38:48;;;;;;;27.43;9.30;;;0.20;99.90;;;;;;5096930;28;20016;-74
2024/01/15 09:41:14;;;;;;;29.17;9.43;;;0.20;99.90;;;;;;5115038;28;20070;-75
2024/01/15 09:43:41;;;;;;;29.13;9.80;;;0.20;99.90;;;;;;5097394;28;20025;-74
2024/01/15 09:46:07;;;;;;;25.93;8.87;;;0.30;99.90;;;;;;5097173;28;20027;-74
2024/01/15 09:48:35;;;;;;;24.80;8.93;;;0.30;99.90;;;;;;5097104;28;20032;-74
2024/01/15 09:51:06;;;;;;;25.87;9.03;;;0.30;99.90;;;;;;5096677;28;20194;-74
2024/01/15 09:53:32;;;;;;;32.83;10.93;;;0.30;99.90;;;;;;5097269;28;20338;-74
2024/01/15 09:55:58;;;;;;;24.73;8.13;;;0.30;99.90;;;;;;5115075;28;20022;-75
2024/01/15 09:58:24;;;;;;;25.23;8.60;;;0.30;99.90;;;;;;5097111;28;20028;-74
2024/01/15 10:00:51;;;;;;;23.70;9.70;;;0.30;99.90;;;;;;5096519;28;20394;-74
2024/01/15 10:03:17;;;;;;;26.27;9.57;;;0.30;99.90;;;;;;5114841;28;20023;-74
2024/01/15 10:05:43;;;;;;;27.00;10.47;;;0.30;99.90;;;;;;5096448;28;20456;-82
2024/01/15 10:08:10;;;;;;;24.13;9.20;;;0.30;99.90;;;;;;5114980;28;20038;-74
2024/01/15 10:10:37;;;;;;;27.60;10.93;;;0.30;99.90;;;;;;5115044;28;20019;-74
2024/01/15 10:13:04;;;;;;;26.60;10.00;;;0.20;99.90;;;;;;5114674;28;20208;-74
2024/01/15 10:15:36;;;;;;;30.70;11.10;;;0.20;99.90;;;;;;5114933;28;20016;-74
2024/01/15 10:18:02;;;;;;;25.75;9.82;;;0.20;99.90;;;;;;5096223;28;20041;-74
2024/01/15 10:20:28;;;;;;;29.77;11.30;;;0.20;99.90;;;;;;5096140;28;20028;-74
2024/01/15 10:22:53;;;;;;;30.40;10.70;;;0.20;99.90;;;;;;5114336;28;20026;-74
2024/01/15 10:25:24;;;;;;;30.37;10.40;;;0.20;99.90;;;;;;5096408;28;20452;-74
2024/01/15 10:28:00;;;;;;;31.17;10.70;;;0.20;99.90;;;;;;5114147;28;20034;-74
2024/01/15 10:30:25;;;;;;;28.87;10.60;;;0.20;99.90;;;;;;5096328;28;20047;-74
2024/01/15 10:33:02;;;;;;;34.23;10.90;;;0.20;99.90;;;;;;5094919;28;20055;-75
2024/01/15 10:35:32;;;;;;;29.37;10.30;;;0.20;99.90;;;;;;5096279;28;20026;-74
2024/01/15 10:37:59;;;;;;;29.40;10.37;;;0.20;99.90;;;;;;5095712;28;20027;-74
2024/01/15 10:40:25;;;;;;;34.93;10.57;;;0.30;99.90;;;;;;5095825;28;20460;-74
2024/01/15 10:42:51;;;;;;;30.60;11.97;;;0.30;99.90;;;;;;5095654;28;20028;-75
2024/01/15 10:45:17;;;;;;;30.97;11.00;;;0.30;99.90;;;;;;5114257;28;20460;-74
2024/01/15 10:47:43;;;;;;;37.03;11.73;;;0.30;99.90;;;;;;5095949;28;20031;-74
2024/01/15 10:50:10;;;;;;;31.00;10.40;;;0.30;99.90;;;;;;5095411;28;20038;-74
2024/01/15 10:52:37;;;;;;;29.50;11.13;;;0.30;99.90;;;;;;5113873;28;20050;-74
2024/01/15 10:55:04;;;;;;;31.07;10.60;;;0.40;99.90;;;;;;5095484;28;20114;-74
2024/01/15 10:57:30;;;;;;;29.80;10.00;;;0.30;99.90;;;;;;5096023;28;20027;-74
2024/01/15 10:59:56;;;;;;;30.70;11.20;;;0.30;99.90;;;;;;5095381;28;20020;-74
2024/01/15 11:02:22;;;;;;;30.30;10.67;;;0.30;99.90;;;;;;5114125;28;20023;-74
2024/01/15 11:04:48;;;;;;;30.97;10.77;;;0.30;99.90;;;;;;5113537;28;20015;-75
2024/01/15 11:07:14;;;;;;;28.70;11.23;;;0.30;99.90;;;;;;5113854;28;20079;-75
2024/01/15 11:09:39;;;;;;;32.87;10.60;;;0.30;99.90;;;;;;5113864;28;20071;-74
2024/01/15 11:12:11;;;;;;;26.57;10.03;;;0.30;99.90;;;;;;5094793;28;20033;-75
2024/01/15 11:14:48;;;;;;;31.55;9.98;;;0.30;99.90;;;;;;5113813;28;20047;-74
2024/01/15 11:17:15;;;;;;;31.17;10.73;;;0.40;99.90;;;;;;5095695;28;20085;-74
2024/01/15 11:19:50;;;;;;;25.23;9.50;;;0.40;99.90;;;;;;5095476;28;20030;-74
2024/01/15 11:22:30;;;;;;;26.33;9.27;;;0.40;99.90;;;;;;5113848;28;20475;-74
2024/01/15 11:25:17;;;;;;;22.77;8.03;;;0.40;99.90;;;;;;5113099;28;20475;-75
2024/01/15 11:27:55;;;;;;;26.50;9.10;;;0.40;99.90;;;;;;5094278;28;20039;-74
2024/01/15 11:30:25;;;;;;;27.83;9.97;;;0.50;99.90;;;;;;5095660;28;20023;-75
2024/01/15 11:32:50;;;;;;;27.60;9.10;;;0.40;99.90;;;;;;5113267;28;20099;-75
2024/01/15 11:35:16;;;;;;;32.03;9.07;;;0.50;99.90;;;;;;5113481;28;20047;-75
2024/01/15 11:37:57;;;;;;;28.67;9.20;;;0.50;99.90;;;;;;5095154;28;20053;-74
2024/01/15 11:40:37;;;;;;;22.90;9.73;;;0.50;99.90;;;;;;5113334;28;20030;-75
2024/01/15 11:43:04;;;;;;;25.67;9.90;;;0.50;99.90;;;;;;5112920;28;20459;-75
2024/01/15 11:45:31;;;;;;;22.03;7.70;;;0.50;99.90;;;;;;5094795;28;20019;-75
2024/01/15 11:48:12;;;;;;;25.23;9.37;;;0.50;99.90;;;;;;5094670;28;20036;-75
2024/01/15 11:50:43;;;;;;;24.92;9.27;;;0.60;99.90;;;;;;5095137;28;20024;-75
2024/01/15 11:53:18;;;;;;;28.73;9.50;;;0.60;99.90;;;;;;5112836;28;20024;-75
2024/01/15 11:55:45;;;;;;;27.80;9.07;;;0.60;99.90;;;;;;5095293;28;20085;-75
2024/01/15 11:58:11;;;;;;;22.37;8.60;;;0.60;99.90;;;;;;5094673;28;20030;-75
2024/01/15 12:00:41;;;;;;;25.00;8.93;;;0.60;99.90;;;;;;5113163;28;20019;-75
2024/01/15 12:03:08;;;;;;;22.70;8.23;;;0.70;99.90;;;;;;5094487;28;20030;-75
2024/01/15 12:05:37;;;;;;;23.30;8.67;;;0.70;99.90;;;;;;5094862;28;20031;-77
2024/01/15 12:08:03;;;;;;;23.27;8.63;;;0.70;99.90;;;;;;5094439;28;20027;-75
2024/01/15 12:10:30;;;;;;;24.30;8.60;;;0.70;99.90;;;;;;5094827;28;20333;-75
2024/01/15 12:13:10;;;;;;;20.33;8.03;;;0.70;99.90;;;;;;5094526;28;20035;-75
2024/01/15 12:15:36;;;;;;;29.77;9.40;;;0.70;99.90;;;;;;5094989;28;20031;-75
2024/01/15 12:18:02;;;;;;;23.63;8.17;;;0.80;99.90;;;;;;5112652;28;20033;-75
2024/01/15 12:20:30;;;;;;;22.00;8.33;;;0.80;99.90;;;;;;5094778;28;20019;-75
2024/01/15 12:22:56;;;;;;;27.70;8.47;;;0.80;99.90;;;;;;5094280;28;20024;-75
2024/01/15 12:25:23;;;;;;;22.30;8.57;;;0.90;99.90;;;;;;5113069;28;20011;-75
2024/01/15 12:27:49;;;;;;;22.80;8.57;;;0.80;99.90;;;;;;5112945;28;20032;-75
2024/01/15 12:30:18;;;;;;;23.37;8.03;;;0.90;99.90;;;;;;5094304;28;20396;-74
2024/01/15 12:32:44;;;;;;;24.53;8.60;;;0.90;99.90;;;;;;5112998;28;20027;-75